Wetterdaten: aktuell Mittwoch, 26.02.2020 10:08
Datum Zeit Temp. A. Feuchte A. Luftdruck Regen Wind Richtung Richtung Taupunkt Windchill
26.02.2020 10:08 4,2 C 66 % 992,5 hPa 0,0 l/m 14,9 km/h (3 Bft) O-SO67.5 110 -1,6 C -1,8 C
26.02.2020 10:07 4,2 C 66 % 992,5 hPa 0,0 l/m 3,9 km/h (1 Bft) O45 85 -1,6 C 4,2 C
26.02.2020 10:05 4,2 C 67 % 992,5 hPa 0,0 l/m 3,0 km/h (1 Bft) O67.5 90 -1,4 C 4,2 C
26.02.2020 10:03 4,2 C 66 % 992,5 hPa 0,0 l/m 3,0 km/h (1 Bft) O67.5 90 -1,6 C 4,2 C
26.02.2020 10:01 4,2 C 66 % 992,5 hPa 0,0 l/m 2,5 km/h (1 Bft) N-NO22.5 20 -1,6 C 4,2 C
26.02.2020 09:59 4,2 C 66 % 992,5 hPa 0,0 l/m 1,0 km/h (0 Bft) O-NO67.5 75 -1,6 C 4,2 C
26.02.2020 09:57 4,2 C 67 % 992,5 hPa 0,0 l/m 1,0 km/h (0 Bft) O-NO67.5 75 -1,4 C 4,2 C
26.02.2020 09:55 4,2 C 67 % 992,5 hPa 0,0 l/m 1,0 km/h (0 Bft) O-NO67.5 75 -1,4 C 4,2 C
26.02.2020 09:53 4,2 C 66 % 992,5 hPa 0,0 l/m 5,5 km/h (1 Bft) O-NO45 70 -1,6 C 4,2 C
26.02.2020 09:51 4,1 C 67 % 992,5 hPa 0,0 l/m 3,0 km/h (1 Bft) NO22.5 55 -1,5 C 4,1 C
26.02.2020 09:49 4,1 C 67 % 992,5 hPa 0,0 l/m 3,0 km/h (1 Bft) NO22.5 55 -1,5 C 4,1 C
26.02.2020 09:47 4,1 C 67 % 992,5 hPa 0,0 l/m 2,5 km/h (1 Bft) NO22.5 50 -1,5 C 4,1 C
26.02.2020 09:45 4,0 C 67 % 992,5 hPa 0,0 l/m 8,1 km/h (2 Bft) NO67.5 40 -1,6 C 2,5 C
26.02.2020 09:43 4,0 C 67 % 992,5 hPa 0,0 l/m 3,9 km/h (1 Bft) O67.5 100 -1,6 C 4,0 C
26.02.2020 09:41 4,0 C 67 % 992,5 hPa 0,0 l/m 3,9 km/h (1 Bft) O67.5 100 -1,6 C 4,0 C
26.02.2020 09:39 3,9 C 68 % 992,5 hPa 0,0 l/m 2,8 km/h (1 Bft) NO22.5 40 -1,5 C 3,9 C
26.02.2020 09:37 3,9 C 68 % 992,5 hPa 0,0 l/m 6,7 km/h (2 Bft) NO67.5 40 -1,5 C 3,6 C
26.02.2020 09:34 3,9 C 68 % 992,5 hPa 0,0 l/m 6,7 km/h (2 Bft) NO67.5 40 -1,5 C 3,6 C
26.02.2020 09:32 3,9 C 68 % 992,5 hPa 0,0 l/m 0,7 km/h (0 Bft) O-NO22.5 70 -1,5 C 3,9 C
26.02.2020 09:31 3,9 C 67 % 992,5 hPa 0,0 l/m 7,5 km/h (2 Bft) O67.5 100 -1,7 C 2,9 C
26.02.2020 09:29 3,9 C 67 % 992,5 hPa 0,0 l/m 2,9 km/h (1 Bft) O-NO22.5 70 -1,7 C 3,9 C
26.02.2020 09:27 3,9 C 68 % 992,5 hPa 0,0 l/m 2,9 km/h (1 Bft) O-NO22.5 70 -1,5 C 3,9 C
26.02.2020 09:25 3,8 C 69 % 992,5 hPa 0,0 l/m 8,7 km/h (2 Bft) O45 80 -1,4 C 1,8 C
26.02.2020 09:23 3,8 C 69 % 992,5 hPa 0,0 l/m 13,1 km/h (3 Bft) O-SO22.5 105 -1,4 C -1,3 C
26.02.2020 09:21 3,8 C 69 % 992,5 hPa 0,0 l/m 13,1 km/h (3 Bft) O-SO22.5 105 -1,4 C -1,3 C
26.02.2020 09:19 3,8 C 70 % 992,5 hPa 0,0 l/m 10,9 km/h (2 Bft) O67.5 80 -1,2 C 0,1 C
26.02.2020 09:17 3,8 C 70 % 992,5 hPa 0,0 l/m 10,8 km/h (2 Bft) SO67.5 130 -1,2 C 0,2 C
26.02.2020 09:15 3,7 C 71 % 992,5 hPa 0,0 l/m 1,0 km/h (0 Bft) O67.5 95 -1,1 C 3,7 C
26.02.2020 09:13 3,7 C 71 % 992,5 hPa 0,0 l/m 1,0 km/h (0 Bft) O67.5 95 -1,1 C 3,7 C
26.02.2020 09:11 3,7 C 71 % 992,5 hPa 0,0 l/m 1,6 km/h (1 Bft) O67.5 95 -1,1 C 3,7 C
26.02.2020 09:09 3,7 C 71 % 992,5 hPa 0,0 l/m 1,4 km/h (1 Bft) O67.5 100 -1,1 C 3,7 C
26.02.2020 09:07 3,7 C 72 % 992,5 hPa 0,0 l/m 1,9 km/h (1 Bft) S-SO45 155 -0,9 C 3,7 C
26.02.2020 09:05 3,7 C 72 % 992,5 hPa 0,0 l/m 1,9 km/h (1 Bft) S-SO45 155 -0,9 C 3,7 C
26.02.2020 09:03 3,7 C 72 % 992,5 hPa 0,0 l/m 0,1 km/h (0 Bft) S45 180 -0,9 C 3,7 C
26.02.2020 09:01 3,6 C 73 % 992,5 hPa 0,0 l/m 9,7 km/h (2 Bft) S67.5 190 -0,8 C 0,8 C
26.02.2020 08:59 3,6 C 73 % 992,5 hPa 0,0 l/m 9,7 km/h (2 Bft) S67.5 190 -0,8 C 0,8 C
26.02.2020 08:57 3,6 C 73 % 992,5 hPa 0,0 l/m 9,1 km/h (2 Bft) S-SO67.5 155 -0,8 C 1,2 C
26.02.2020 08:54 3,5 C 74 % 992,5 hPa 0,0 l/m 12,0 km/h (2 Bft) S67.5 175 -0,7 C -1,0 C
26.02.2020 08:53 3,5 C 74 % 992,5 hPa 0,0 l/m 8,6 km/h (2 Bft) SO67.5 145 -0,7 C 1,5 C
26.02.2020 08:51 3,5 C 75 % 992,5 hPa 0,0 l/m 8,6 km/h (2 Bft) SO67.5 145 -0,5 C 1,5 C
26.02.2020 08:49 3,4 C 76 % 992,5 hPa 0,0 l/m 9,0 km/h (2 Bft) SO45 140 -0,4 C 1,1 C
_ Min-Zeit 05:09 09:53 00:03 - 00:25 - - 09:29 07:45
Minimum _ 2,5 C 66 % 991,5 hPa - 0,0 km/h (0 Bft) - - -1,7 C -2,6 C
_ Max-Zeit 00:01 05:01 08:03 02:05 10:08 - - 02:37 00:01
Maximum _ 5,0 C 89 % 992,6 hPa 0,4 l/m 14,9 km/h
O-SO (3 Bft)
- - 2,6 C 5,0 C
Durchschnitt _ 3,6 C 82 % 991,9 hPa #2,5 l/m 1,9 km/h (1 Bft) SO - 0,8 C 3,3 C